createdAt,value
2022-10-11T00:01:30.998Z,99585.25
2022-10-11T00:03:57.881Z,99586.25
2022-10-11T00:06:24.751Z,99592.91
2022-10-11T00:08:51.530Z,99589.19
2022-10-11T00:11:18.522Z,99597.13
2022-10-11T00:13:45.363Z,99600.41
2022-10-11T00:16:13.062Z,99603.09
2022-10-11T00:18:40.006Z,99604.44
2022-10-11T00:21:12.967Z,99604.75
2022-10-11T00:23:40.425Z,99618.34
2022-10-11T00:26:09.492Z,99621.41
2022-10-11T00:28:37.310Z,99626.44
2022-10-11T00:31:08.070Z,99627.56
2022-10-11T00:33:35.289Z,99619.09
2022-10-11T00:36:02.904Z,99625.50
2022-10-11T00:38:31.857Z,99632.34
2022-10-11T00:40:59.667Z,99630.81
2022-10-11T00:43:28.767Z,99633.03
2022-10-11T00:46:06.139Z,99639.38
2022-10-11T00:48:57.540Z,99650.59
2022-10-11T00:51:48.694Z,99645.50
2022-10-11T00:54:17.795Z,99647.00
2022-10-11T00:56:49.434Z,99653.94
2022-10-11T00:59:22.895Z,99645.34
2022-10-11T01:01:49.984Z,99655.34
2022-10-11T01:04:16.863Z,99652.44
2022-10-11T01:06:44.124Z,99660.59
2022-10-11T01:09:11.253Z,99668.09
2022-10-11T01:11:39.824Z,99667.25
2022-10-11T01:14:46.133Z,99672.78
2022-10-11T01:17:22.223Z,99667.25
2022-10-11T01:20:37.293Z,99673.22
2022-10-11T01:23:44.034Z,99682.22
2022-10-11T01:26:58.398Z,99680.81
2022-10-11T01:30:10.059Z,99677.91
2022-10-11T01:32:54.546Z,99674.94
2022-10-11T01:35:41.121Z,99675.63
2022-10-11T01:38:48.517Z,99689.63
2022-10-11T01:41:23.099Z,99677.72
2022-10-11T01:43:51.259Z,99680.78
2022-10-11T01:46:19.605Z,99686.06
2022-10-11T01:48:54.422Z,99692.34
2022-10-11T01:51:23.934Z,99691.25
2022-10-11T01:54:10.201Z,99694.03
2022-10-11T01:57:28.290Z,99698.31
2022-10-11T02:00:16.671Z,99699.47
2022-10-11T02:03:32.102Z,99701.88
2022-10-11T02:06:09.167Z,99695.53
2022-10-11T02:09:04.484Z,99695.66
2022-10-11T02:11:35.477Z,99696.34
2022-10-11T02:14:32.508Z,99703.47
2022-10-11T02:17:04.765Z,99701.03
2022-10-11T02:19:36.216Z,99697.59
2022-10-11T02:22:06.599Z,99697.47
2022-10-11T02:24:35.729Z,99705.56
2022-10-11T02:27:04.560Z,99718.59
2022-10-11T02:29:34.851Z,99720.31
2022-10-11T02:32:03.082Z,99710.31
2022-10-11T02:34:48.693Z,99715.97
2022-10-11T02:37:41.352Z,99723.00
2022-10-11T02:40:21.312Z,99714.13
2022-10-11T02:42:59.840Z,99719.88
2022-10-11T02:45:31.865Z,99717.16
2022-10-11T02:47:59.068Z,99727.44
2022-10-11T02:50:27.229Z,99731.66
2022-10-11T02:52:54.007Z,99738.59
2022-10-11T02:55:20.933Z,99738.94
2022-10-11T02:57:47.841Z,99741.31
2022-10-11T03:00:15.475Z,99738.13
2022-10-11T03:02:42.377Z,99736.69
2022-10-11T03:05:09.348Z,99738.97
2022-10-11T03:07:36.314Z,99733.59
2022-10-11T03:10:04.571Z,99745.03
2022-10-11T03:12:31.661Z,99743.47
2022-10-11T03:14:58.764Z,99751.66
2022-10-11T03:17:38.207Z,99753.81
2022-10-11T03:20:06.137Z,99755.81
2022-10-11T03:22:33.054Z,99761.78
2022-10-11T03:25:04.076Z,99757.63
2022-10-11T03:27:32.653Z,99758.22
2022-10-11T03:29:59.630Z,99750.69
2022-10-11T03:32:26.613Z,99759.47
2022-10-11T03:34:53.424Z,99763.97
2022-10-11T03:37:20.443Z,99769.69
2022-10-11T03:39:47.214Z,99773.00
2022-10-11T03:42:14.477Z,99777.66
2022-10-11T03:44:42.427Z,99783.75
2022-10-11T03:47:09.342Z,99783.31
2022-10-11T03:49:41.201Z,99779.53
2022-10-11T03:52:10.487Z,99786.16
2022-10-11T03:54:37.307Z,99797.47
2022-10-11T03:57:04.224Z,99790.75
2022-10-11T03:59:31.526Z,99795.75
2022-10-11T04:01:58.440Z,99794.28
2022-10-11T04:04:25.205Z,99800.28
2022-10-11T04:06:52.087Z,99794.28
2022-10-11T04:09:18.888Z,99797.97
2022-10-11T04:11:45.839Z,99807.63
2022-10-11T04:14:12.684Z,99805.00
2022-10-11T04:16:40.351Z,99805.16
2022-10-11T04:19:07.625Z,99815.13
2022-10-11T04:21:34.562Z,99817.06
2022-10-11T04:24:01.318Z,99808.53
2022-10-11T04:26:28.114Z,99802.44
2022-10-11T04:28:55.059Z,99808.72
2022-10-11T04:31:21.932Z,99805.91
2022-10-11T04:33:48.706Z,99823.94
2022-10-11T04:36:15.758Z,99819.78
2022-10-11T04:38:42.836Z,99825.97
2022-10-11T04:41:11.596Z,99828.94
2022-10-11T04:43:38.588Z,99823.50
2022-10-11T04:46:06.258Z,99832.59
2022-10-11T04:48:33.763Z,99833.44
2022-10-11T04:51:00.928Z,99826.81
2022-10-11T04:53:27.756Z,99845.03
2022-10-11T04:56:01.642Z,99850.97
2022-10-11T04:58:29.862Z,99843.97
2022-10-11T05:00:57.459Z,99839.59
2022-10-11T05:03:25.330Z,99848.16
2022-10-11T05:05:53.115Z,99860.28
2022-10-11T05:08:20.323Z,99855.38
2022-10-11T05:11:01.953Z,99867.09
2022-10-11T05:13:29.551Z,99857.88
2022-10-11T05:15:56.571Z,99863.81
2022-10-11T05:18:24.015Z,99876.25
2022-10-11T05:21:02.180Z,99867.66
2022-10-11T05:23:29.866Z,99870.84
2022-10-11T05:25:56.830Z,99876.69
2022-10-11T05:28:23.692Z,99883.25
2022-10-11T05:30:50.668Z,99881.88
2022-10-11T05:33:17.408Z,99889.38
2022-10-11T05:35:44.661Z,99892.41
2022-10-11T05:38:11.529Z,99895.78
2022-10-11T05:40:39.381Z,99904.94
2022-10-11T05:43:06.558Z,99908.03
2022-10-11T05:45:40.398Z,99908.03
2022-10-11T05:48:08.072Z,99912.75
2022-10-11T05:50:35.765Z,99913.97
2022-10-11T05:53:02.628Z,99904.56
2022-10-11T05:55:29.378Z,99903.53
2022-10-11T05:57:57.369Z,99917.44
2022-10-11T06:00:24.610Z,99913.25
2022-10-11T06:02:51.272Z,99912.31
2022-10-11T06:05:18.464Z,99925.00
2022-10-11T06:07:45.246Z,99919.34
2022-10-11T06:10:12.508Z,99922.59
2022-10-11T06:12:39.523Z,99924.81
2022-10-11T06:15:07.669Z,99932.09
2022-10-11T06:17:34.873Z,99931.00
2022-10-11T06:20:02.080Z,99935.66
2022-10-11T06:22:28.932Z,99933.22
2022-10-11T06:24:55.760Z,99937.09
2022-10-11T06:27:22.491Z,99940.19
2022-10-11T06:29:49.429Z,99952.66
2022-10-11T06:32:16.392Z,99955.50
2022-10-11T06:34:43.202Z,99955.97
2022-10-11T06:37:10.065Z,99967.59
2022-10-11T06:39:36.876Z,99963.22
2022-10-11T06:42:03.803Z,99964.66
2022-10-11T06:44:30.792Z,99970.31
2022-10-11T06:46:57.526Z,99976.22
2022-10-11T06:49:24.542Z,99978.75
2022-10-11T06:51:51.455Z,99975.56
2022-10-11T06:54:18.347Z,99974.41
2022-10-11T06:56:45.917Z,99976.38
2022-10-11T06:59:13.608Z,99980.41
2022-10-11T07:01:40.672Z,99984.84
2022-10-11T07:04:08.342Z,99984.25
2022-10-11T07:06:40.152Z,99979.41
2022-10-11T07:09:07.659Z,99997.22
2022-10-11T07:11:34.471Z,99995.66
2022-10-11T07:14:07.994Z,100005.72
2022-10-11T07:16:36.653Z,100009.34
2022-10-11T07:19:05.015Z,100011.06
2022-10-11T07:21:32.929Z,100023.19
2022-10-11T07:24:00.345Z,100016.94
2022-10-11T07:26:28.207Z,100013.56
2022-10-11T07:28:55.165Z,100017.22
2022-10-11T07:31:25.132Z,100020.16
2022-10-11T07:33:52.354Z,100026.94
2022-10-11T07:36:19.362Z,100018.47
2022-10-11T07:38:47.168Z,100022.44
2022-10-11T07:41:14.271Z,100028.34
2022-10-11T07:43:43.500Z,100028.59
2022-10-11T07:46:11.453Z,100041.63
2022-10-11T07:48:38.779Z,100040.50
2022-10-11T07:51:14.131Z,100040.50
2022-10-11T07:53:46.506Z,100041.53
2022-10-11T07:56:16.140Z,100040.63
2022-10-11T07:58:43.261Z,100038.03
2022-10-11T08:01:11.555Z,100036.28
2022-10-11T08:03:38.851Z,100039.00
2022-10-11T08:06:08.508Z,100044.41
2022-10-11T08:08:36.654Z,100037.44
2022-10-11T08:11:03.785Z,100040.09
2022-10-11T08:13:30.622Z,100038.19
2022-10-11T08:15:57.978Z,100041.44
2022-10-11T08:18:24.976Z,100039.63
2022-10-11T08:20:52.102Z,100044.75
2022-10-11T08:23:19.894Z,100040.34
2022-10-11T08:25:47.819Z,100045.00
2022-10-11T08:28:18.136Z,100039.03
2022-10-11T08:30:53.269Z,100038.44
2022-10-11T08:33:21.850Z,100040.22
2022-10-11T08:35:49.552Z,100035.19
2022-10-11T08:38:17.087Z,100034.53
2022-10-11T08:40:52.851Z,100037.97
2022-10-11T08:43:32.496Z,100042.22
2022-10-11T08:46:01.395Z,100033.81
2022-10-11T08:48:39.118Z,100040.50
2022-10-11T08:51:14.075Z,100038.34
2022-10-11T08:53:53.147Z,100039.47
2022-10-11T08:56:20.972Z,100036.50
2022-10-11T08:58:55.883Z,100034.78
2022-10-11T09:01:25.892Z,100034.44
2022-10-11T09:03:53.153Z,100042.25
2022-10-11T09:07:02.617Z,100032.97
2022-10-11T09:10:01.330Z,100038.72
2022-10-11T09:12:40.964Z,100039.06
2022-10-11T09:15:29.308Z,100038.97
2022-10-11T09:18:31.476Z,100031.22
2022-10-11T09:21:23.476Z,100022.38
2022-10-11T09:24:08.667Z,100028.06
2022-10-11T09:26:40.526Z,100027.22
2022-10-11T09:29:56.732Z,100018.91
2022-10-11T09:32:27.692Z,100023.91
2022-10-11T09:35:09.428Z,100020.88
2022-10-11T09:37:43.013Z,100019.06
2022-10-11T09:40:22.769Z,100012.53
2022-10-11T09:42:49.550Z,100014.75
2022-10-11T09:45:21.265Z,100016.00
2022-10-11T09:47:50.051Z,100007.50
2022-10-11T09:50:20.267Z,100003.88
2022-10-11T09:52:58.234Z,100008.88
2022-10-11T09:55:40.954Z,100015.78
2022-10-11T09:58:27.161Z,100001.78
2022-10-11T10:01:08.001Z,100006.91
2022-10-11T10:03:40.693Z,100010.94
2022-10-11T10:06:23.424Z,100015.75
2022-10-11T10:08:50.903Z,100011.66
2022-10-11T10:11:18.937Z,100009.13
2022-10-11T10:13:50.086Z,100014.94
2022-10-11T10:16:31.787Z,100007.44
2022-10-11T10:18:58.786Z,100009.28
2022-10-11T10:21:37.286Z,100015.50
2022-10-11T10:24:20.149Z,100014.19
2022-10-11T10:27:21.192Z,100009.91
2022-10-11T10:30:17.077Z,100007.56
2022-10-11T10:32:57.367Z,100019.28
2022-10-11T10:36:10.681Z,100021.47
2022-10-11T10:38:52.325Z,100016.81
2022-10-11T10:41:19.375Z,100010.69
2022-10-11T10:43:53.760Z,100012.03
2022-10-11T10:46:58.354Z,100014.28
2022-10-11T10:50:06.650Z,100003.41
2022-10-11T10:53:21.852Z,100006.13
2022-10-11T10:55:54.191Z,100009.81
2022-10-11T10:58:42.412Z,100007.75
2022-10-11T11:01:14.851Z,100015.53
2022-10-11T11:04:21.840Z,100011.53
2022-10-11T11:06:58.078Z,100013.16
2022-10-11T11:09:40.663Z,100008.97
2022-10-11T11:12:32.166Z,100009.56
2022-10-11T11:15:24.718Z,100001.81
2022-10-11T11:18:38.068Z,100000.06
2022-10-11T11:24:47.906Z,100003.53
2022-10-11T11:27:44.695Z,99991.06
2022-10-11T11:30:53.327Z,100001.03
2022-10-11T11:33:58.597Z,100001.78
2022-10-11T11:37:02.715Z,99993.66
2022-10-11T11:39:54.735Z,99992.09
2022-10-11T11:42:36.430Z,99994.16
2022-10-11T11:45:12.584Z,99999.00
2022-10-11T11:47:42.441Z,99996.84
2022-10-11T11:50:25.356Z,99986.78
2022-10-11T11:52:55.133Z,100003.47
2022-10-11T11:55:32.519Z,99989.69
2022-10-11T11:58:11.425Z,99995.03
2022-10-11T12:00:55.381Z,99988.78
2022-10-11T12:03:27.322Z,99991.00
2022-10-11T12:06:33.125Z,99981.31
2022-10-11T12:09:09.973Z,99970.47
2022-10-11T12:11:51.727Z,99981.28
2022-10-11T12:14:40.203Z,99973.41
2022-10-11T12:17:22.545Z,99981.31
2022-10-11T12:20:12.970Z,99977.75
2022-10-11T12:23:01.098Z,99985.41
2022-10-11T12:25:41.148Z,99979.13
2022-10-11T12:28:37.602Z,99971.34
2022-10-11T12:31:07.902Z,99978.00
2022-10-11T12:33:55.251Z,99980.13
2022-10-11T12:36:43.706Z,99977.66
2022-10-11T12:39:43.743Z,99968.44
2022-10-11T12:42:32.684Z,99970.41
2022-10-11T12:45:14.577Z,99963.41
2022-10-11T12:48:22.012Z,99966.38
2022-10-11T12:51:32.940Z,99955.97
2022-10-11T12:54:37.640Z,99953.50
2022-10-11T12:57:25.877Z,99959.41
2022-10-11T12:59:53.121Z,99954.66
2022-10-11T13:02:43.110Z,99953.63
2022-10-11T13:05:45.251Z,99959.66
2022-10-11T13:08:26.591Z,99949.72
2022-10-11T13:10:54.068Z,99946.63
2022-10-11T13:13:30.115Z,99941.03
2022-10-11T13:15:58.293Z,99945.09
2022-10-11T13:18:26.537Z,99942.91
2022-10-11T13:20:53.582Z,99943.09
2022-10-11T13:23:36.330Z,99947.00
2022-10-11T13:26:03.639Z,99940.72
2022-10-11T13:28:35.576Z,99931.75
2022-10-11T13:31:05.041Z,99940.56
2022-10-11T13:33:35.284Z,99932.22
2022-10-11T13:36:05.009Z,99930.59
2022-10-11T13:38:37.052Z,99929.72
2022-10-11T13:41:06.721Z,99935.91
2022-10-11T13:43:34.893Z,99918.97
2022-10-11T13:46:05.485Z,99919.50
2022-10-11T13:48:34.849Z,99916.84
2022-10-11T13:51:09.641Z,99917.91
2022-10-11T13:53:37.597Z,99914.97
2022-10-11T13:56:08.238Z,99919.31
2022-10-11T13:58:40.792Z,99914.78
2022-10-11T14:01:40.762Z,99918.47
2022-10-11T14:04:10.395Z,99920.19
2022-10-11T14:06:49.153Z,99908.72
2022-10-11T14:09:37.399Z,99897.66
2022-10-11T14:12:40.465Z,99905.31
2022-10-11T14:15:24.732Z,99907.31
2022-10-11T14:17:52.250Z,99908.38
2022-10-11T14:20:27.287Z,99905.81
2022-10-11T14:22:56.494Z,99910.75
2022-10-11T14:25:23.264Z,99908.13
2022-10-11T14:27:51.228Z,99901.94
2022-10-11T14:30:27.412Z,99902.59
2022-10-11T14:32:57.307Z,99904.44
2022-10-11T14:35:28.874Z,99908.91
2022-10-11T14:37:55.789Z,99905.44
2022-10-11T14:40:26.278Z,99907.19
2022-10-11T14:42:53.330Z,99914.09
2022-10-11T14:45:21.551Z,99912.66
2022-10-11T14:47:49.188Z,99911.00
2022-10-11T14:50:35.714Z,99909.53
2022-10-11T14:53:04.276Z,99911.44
2022-10-11T14:55:31.619Z,99905.28
2022-10-11T14:57:59.107Z,99907.22
2022-10-11T15:00:28.606Z,99909.59
2022-10-11T15:02:55.849Z,99903.28
2022-10-11T15:05:28.685Z,99912.91
2022-10-11T15:07:58.331Z,99907.97
2022-10-11T15:10:30.592Z,99905.47
2022-10-11T15:12:58.272Z,99900.94
2022-10-11T15:15:26.832Z,99904.13
2022-10-11T15:17:56.024Z,99903.91
2022-10-11T15:20:35.547Z,99899.44
2022-10-11T15:23:03.900Z,99886.09
2022-10-11T15:25:31.189Z,99889.81
2022-10-11T15:27:58.099Z,99895.47
2022-10-11T15:30:30.247Z,99889.72
2022-10-11T15:32:57.082Z,99891.13
2022-10-11T15:35:26.074Z,99896.41
2022-10-11T15:37:55.784Z,99898.13
2022-10-11T15:40:26.915Z,99899.22
2022-10-11T15:42:54.940Z,99900.91
2022-10-11T15:45:23.400Z,99905.94
2022-10-11T15:47:50.634Z,99908.94
2022-10-11T15:50:37.888Z,99894.50
2022-10-11T15:53:28.627Z,99899.94
2022-10-11T15:55:57.682Z,99903.34
2022-10-11T15:58:36.038Z,99903.34
2022-10-11T16:01:09.093Z,99903.44
2022-10-11T16:03:36.149Z,99901.31
2022-10-11T16:06:05.540Z,99908.56
2022-10-11T16:08:34.013Z,99898.19
2022-10-11T16:11:01.960Z,99901.47
2022-10-11T16:13:28.743Z,99903.25
2022-10-11T16:15:55.962Z,99896.59
2022-10-11T16:18:24.103Z,99904.91
2022-10-11T16:20:52.070Z,99903.25
2022-10-11T16:23:21.371Z,99908.69
2022-10-11T16:25:59.758Z,99913.72
2022-10-11T16:28:27.815Z,99913.16
2022-10-11T16:30:55.578Z,99918.00
2022-10-11T16:33:23.347Z,99921.22
2022-10-11T16:35:51.363Z,99918.97
2022-10-11T16:38:18.352Z,99926.47
2022-10-11T16:40:45.017Z,99930.75
2022-10-11T16:43:11.908Z,99932.13
2022-10-11T16:45:39.284Z,99926.97
2022-10-11T16:48:06.722Z,99927.38
2022-10-11T16:50:39.063Z,99934.25
2022-10-11T16:53:06.772Z,99935.50
2022-10-11T16:55:33.504Z,99938.06
2022-10-11T16:58:00.605Z,99936.22
2022-10-11T17:00:27.552Z,99936.28
2022-10-11T17:02:54.963Z,99937.47
2022-10-11T17:05:23.224Z,99938.28
2022-10-11T17:07:50.094Z,99933.97
2022-10-11T17:10:18.083Z,99938.53
2022-10-11T17:12:49.902Z,99941.06
2022-10-11T17:15:17.081Z,99936.56
2022-10-11T17:17:44.794Z,99941.88
2022-10-11T17:20:11.663Z,99939.81
2022-10-11T17:22:38.709Z,99947.09
2022-10-11T17:25:06.094Z,99938.84
2022-10-11T17:27:33.980Z,99943.19
2022-10-11T17:30:03.069Z,99944.88
2022-10-11T17:32:30.606Z,99939.41
2022-10-11T17:34:59.546Z,99935.50
2022-10-11T17:37:28.259Z,99940.97
2022-10-11T17:39:56.075Z,99938.16
2022-10-11T17:42:23.061Z,99938.53
2022-10-11T17:44:50.619Z,99936.78
2022-10-11T17:47:17.796Z,99947.41
2022-10-11T17:49:44.613Z,99945.72
2022-10-11T17:52:11.538Z,99931.50
2022-10-11T17:54:39.226Z,99940.59
2022-10-11T17:57:06.160Z,99948.13
2022-10-11T17:59:33.226Z,99945.28
2022-10-11T18:02:00.188Z,99947.91
2022-10-11T18:04:30.202Z,99943.13
2022-10-11T18:06:57.089Z,99949.69
2022-10-11T18:09:24.872Z,99943.84
2022-10-11T18:11:51.981Z,99946.00
2022-10-11T18:14:19.171Z,99954.84
2022-10-11T18:16:46.113Z,99948.13
2022-10-11T18:19:13.841Z,99943.59
2022-10-11T18:21:41.451Z,99944.19
2022-10-11T18:24:15.194Z,99945.00
2022-10-11T18:26:43.348Z,99939.34
2022-10-11T18:29:11.444Z,99942.56
2022-10-11T18:31:38.544Z,99941.19
2022-10-11T18:34:08.608Z,99945.78
2022-10-11T18:36:35.757Z,99936.09
2022-10-11T18:39:05.546Z,99933.72
2022-10-11T18:41:33.449Z,99932.63
2022-10-11T18:44:02.236Z,99930.97
2022-10-11T18:46:30.448Z,99932.81
2022-10-11T18:48:58.874Z,99932.31
2022-10-11T18:51:32.144Z,99936.22
2022-10-11T18:53:59.413Z,99941.91
2022-10-11T18:56:27.689Z,99934.75
2022-10-11T18:58:57.001Z,99929.81
2022-10-11T19:01:29.399Z,99919.72
2022-10-11T19:03:57.895Z,99931.88
2022-10-11T19:06:49.115Z,99930.03
2022-10-11T19:09:24.699Z,99926.81
2022-10-11T19:11:53.656Z,99929.88
2022-10-11T19:14:23.254Z,99933.16
2022-10-11T19:16:51.784Z,99932.25
2022-10-11T19:19:21.025Z,99934.06
2022-10-11T19:21:49.181Z,99937.84
2022-10-11T19:24:18.168Z,99933.88
2022-10-11T19:26:45.211Z,99922.94
2022-10-11T19:29:20.802Z,99929.03
2022-10-11T19:31:50.745Z,99926.97
2022-10-11T19:34:18.735Z,99935.09
2022-10-11T19:36:45.591Z,99933.66
2022-10-11T19:39:14.285Z,99940.06
2022-10-11T19:41:41.843Z,99937.66
2022-10-11T19:44:09.547Z,99941.53
2022-10-11T19:46:52.956Z,99933.88
2022-10-11T19:49:25.430Z,99933.78
2022-10-11T19:51:56.020Z,99939.34
2022-10-11T19:54:23.404Z,99944.69
2022-10-11T19:56:50.303Z,99952.22
2022-10-11T19:59:17.323Z,99947.38
2022-10-11T20:01:49.405Z,99947.63
2022-10-11T20:04:47.194Z,99942.91
2022-10-11T20:07:05.805Z,99951.66
2022-10-11T20:09:32.545Z,99947.28
2022-10-11T20:12:00.242Z,99943.94
2022-10-11T20:14:27.146Z,99956.22
2022-10-11T20:16:54.155Z,99956.34
2022-10-11T20:19:25.006Z,99947.03
2022-10-11T20:21:53.647Z,99948.16
2022-10-11T20:24:20.732Z,99950.91
2022-10-11T20:26:48.403Z,99955.59
2022-10-11T20:29:15.228Z,99946.97
2022-10-11T20:31:43.031Z,99947.50
2022-10-11T20:34:09.947Z,99944.03
2022-10-11T20:36:36.884Z,99949.88
2022-10-11T20:39:05.072Z,99949.66
2022-10-11T20:41:34.973Z,99950.72
2022-10-11T20:44:03.033Z,99944.22
2022-10-11T20:46:31.708Z,99946.69
2022-10-11T20:49:04.356Z,99948.09
2022-10-11T20:51:33.161Z,99943.69
2022-10-11T20:54:01.113Z,99957.88
2022-10-11T20:56:29.984Z,99953.91
2022-10-11T20:58:58.054Z,99954.00
2022-10-11T21:01:45.171Z,99951.72
2022-10-11T21:04:18.767Z,99958.88
2022-10-11T21:06:45.989Z,99945.47
2022-10-11T21:09:15.587Z,99948.53
2022-10-11T21:11:43.718Z,99951.88
2022-10-11T21:14:10.551Z,99945.34
2022-10-11T21:16:39.064Z,99955.34
2022-10-11T21:19:06.722Z,99949.44
2022-10-11T21:21:33.502Z,99942.34
2022-10-11T21:24:02.081Z,99946.16
2022-10-11T21:26:30.665Z,99945.31
2022-10-11T21:28:59.783Z,99943.91
2022-10-11T21:31:29.733Z,99937.31
2022-10-11T21:34:00.310Z,99932.97
2022-10-11T21:36:27.113Z,99947.03
2022-10-11T21:38:54.341Z,99933.97
2022-10-11T21:41:23.807Z,99934.41
2022-10-11T21:43:50.674Z,99933.53
2022-10-11T21:46:22.917Z,99938.75
2022-10-11T21:48:51.322Z,99940.03
2022-10-11T21:51:23.213Z,99938.28
2022-10-11T21:53:50.071Z,99946.69
2022-10-11T21:56:17.005Z,99934.59
2022-10-11T21:58:47.225Z,99934.94
2022-10-11T22:01:14.918Z,99937.72
2022-10-11T22:03:42.089Z,99942.06
2022-10-11T22:06:09.151Z,99941.03
2022-10-11T22:08:36.563Z,99941.84
2022-10-11T22:11:03.528Z,99933.84
2022-10-11T22:13:31.569Z,99939.44
2022-10-11T22:16:08.712Z,99936.28
2022-10-11T22:18:35.539Z,99938.59
2022-10-11T22:21:08.343Z,99950.25
2022-10-11T22:23:35.762Z,99957.69
2022-10-11T22:26:08.001Z,99947.47
2022-10-11T22:28:35.293Z,99951.19
2022-10-11T22:31:02.217Z,99949.50
2022-10-11T22:33:28.980Z,99952.69
2022-10-11T22:35:57.684Z,99948.03
2022-10-11T22:38:25.259Z,99951.75
2022-10-11T22:40:52.588Z,99952.19
2022-10-11T22:43:20.105Z,99946.31
2022-10-11T22:45:47.132Z,99945.28
2022-10-11T22:48:14.492Z,99949.19
2022-10-11T22:50:41.644Z,99950.03
2022-10-11T22:53:09.151Z,99950.09
2022-10-11T22:55:36.019Z,99944.28
2022-10-11T22:58:05.324Z,99941.72
2022-10-11T23:00:34.756Z,99944.97
2022-10-11T23:03:02.415Z,99945.25
2022-10-11T23:05:29.467Z,99936.78
2022-10-11T23:07:56.219Z,99938.09
2022-10-11T23:10:23.007Z,99942.19
2022-10-11T23:12:50.298Z,99936.78
2022-10-11T23:15:17.159Z,99941.28
2022-10-11T23:17:44.641Z,99935.50
2022-10-11T23:20:11.991Z,99932.25
2022-10-11T23:22:38.968Z,99934.25
2022-10-11T23:25:07.099Z,99936.41
2022-10-11T23:27:33.892Z,99934.94
2022-10-11T23:30:00.820Z,99945.00
2022-10-11T23:32:27.505Z,99938.22
2022-10-11T23:34:54.346Z,99934.22
2022-10-11T23:37:21.285Z,99935.16
2022-10-11T23:39:48.498Z,99933.53
2022-10-11T23:42:15.181Z,99942.19
2022-10-11T23:44:42.082Z,99944.50
2022-10-11T23:47:09.020Z,99930.06
2022-10-11T23:49:36.238Z,99937.03
2022-10-11T23:52:02.952Z,99944.53
2022-10-11T23:54:29.760Z,99946.22
2022-10-11T23:56:57.385Z,99938.44
2022-10-11T23:59:24.214Z,99939.31
